createdAt,value
2019-05-03T00:00:15.076Z,3.02
2019-05-03T00:02:54.496Z,2.98
2019-05-03T00:05:34.066Z,2.75
2019-05-03T00:08:04.556Z,3.02
2019-05-03T00:10:33.601Z,3.05
2019-05-03T00:13:02.413Z,3.72
2019-05-03T00:15:32.823Z,2.90
2019-05-03T00:18:02.344Z,2.83
2019-05-03T00:20:32.656Z,3.30
2019-05-03T00:23:02.928Z,3.10
2019-05-03T00:25:32.649Z,3.12
2019-05-03T00:28:01.931Z,3.58
2019-05-03T00:30:32.018Z,3.80
2019-05-03T00:33:02.913Z,3.60
2019-05-03T00:35:42.461Z,4.58
2019-05-03T00:38:13.078Z,4.35
2019-05-03T00:40:41.918Z,5.17
2019-05-03T00:43:11.587Z,5.55
2019-05-03T00:45:42.230Z,6.35
2019-05-03T00:48:12.431Z,5.28
2019-05-03T00:50:42.566Z,6.15
2019-05-03T00:53:11.796Z,6.95
2019-05-03T00:55:41.969Z,6.65
2019-05-03T00:58:11.784Z,7.10
2019-05-03T01:00:41.793Z,6.97
2019-05-03T01:03:12.413Z,6.97
2019-05-03T01:05:42.338Z,7.08
2019-05-03T01:08:12.693Z,7.25
2019-05-03T01:10:42.153Z,7.05
2019-05-03T01:13:12.368Z,7.00
2019-05-03T01:15:43.127Z,6.78
2019-05-03T01:18:13.512Z,6.47
2019-05-03T01:20:42.707Z,6.80
2019-05-03T01:23:12.450Z,6.90
2019-05-03T01:25:42.876Z,6.60
2019-05-03T01:28:12.296Z,7.03
2019-05-03T01:30:42.520Z,6.17
2019-05-03T01:33:12.152Z,6.12
2019-05-03T01:35:42.763Z,6.28
2019-05-03T01:38:11.759Z,6.50
2019-05-03T01:40:41.952Z,6.65
2019-05-03T01:43:11.671Z,6.75
2019-05-03T01:45:42.459Z,6.90
2019-05-03T01:48:18.917Z,6.80
2019-05-03T01:51:02.823Z,6.90
2019-05-03T01:53:33.350Z,6.20
2019-05-03T01:56:03.631Z,6.85
2019-05-03T01:58:32.840Z,6.60
2019-05-03T02:01:19.382Z,6.83
2019-05-03T02:03:49.819Z,6.65
2019-05-03T02:06:18.574Z,6.53
2019-05-03T02:08:47.421Z,7.00
2019-05-03T02:11:16.251Z,6.72
2019-05-03T02:13:45.086Z,6.60
2019-05-03T02:16:13.940Z,6.72
2019-05-03T02:18:42.789Z,6.53
2019-05-03T02:21:12.224Z,6.35
2019-05-03T02:23:42.538Z,6.67
2019-05-03T02:26:11.827Z,7.00
2019-05-03T02:28:42.191Z,6.62
2019-05-03T02:31:13.394Z,7.05
2019-05-03T02:33:43.427Z,7.58
2019-05-03T02:36:13.673Z,6.97
2019-05-03T02:38:43.168Z,7.00
2019-05-03T02:41:13.479Z,7.42
2019-05-03T02:43:49.663Z,6.65
2019-05-03T02:46:20.077Z,6.42
2019-05-03T02:48:59.479Z,5.90
2019-05-03T02:51:28.298Z,6.12
2019-05-03T02:53:57.447Z,5.65
2019-05-03T02:56:26.522Z,6.42
2019-05-03T02:58:56.020Z,6.50
2019-05-03T03:01:26.462Z,5.97
2019-05-03T03:03:56.926Z,6.10
2019-05-03T03:06:27.197Z,5.83
2019-05-03T03:08:58.581Z,5.80
2019-05-03T03:11:30.277Z,6.42
2019-05-03T03:14:01.889Z,6.75
2019-05-03T03:16:35.906Z,6.45
2019-05-03T03:19:06.568Z,7.45
2019-05-03T03:21:38.923Z,6.42
2019-05-03T03:24:16.349Z,6.58
2019-05-03T03:26:47.050Z,6.78
2019-05-03T03:29:16.438Z,7.22
2019-05-03T03:31:51.091Z,7.22
2019-05-03T03:34:27.493Z,7.10
2019-05-03T03:37:04.226Z,7.50
2019-05-03T03:39:26.274Z,7.65
2019-05-03T03:41:56.313Z,7.42
2019-05-03T03:44:27.026Z,7.33
2019-05-03T03:46:57.960Z,7.37
2019-05-03T03:49:28.780Z,7.50
2019-05-03T03:52:00.314Z,7.92
2019-05-03T03:54:32.108Z,7.60
2019-05-03T03:57:04.855Z,7.40
2019-05-03T03:59:32.318Z,7.67
2019-05-03T04:02:01.746Z,6.90
2019-05-03T04:04:30.676Z,7.22
2019-05-03T04:07:01.393Z,8.13
2019-05-03T04:09:30.726Z,7.72
2019-05-03T04:11:59.541Z,8.20
2019-05-03T04:14:30.273Z,7.85
2019-05-03T04:17:00.776Z,7.70
2019-05-03T04:19:31.495Z,8.00
2019-05-03T04:22:00.432Z,7.70
2019-05-03T04:24:30.996Z,7.60
2019-05-03T04:27:18.648Z,8.10
2019-05-03T04:29:38.569Z,7.83
2019-05-03T04:32:09.898Z,8.20
2019-05-03T04:34:38.766Z,7.73
2019-05-03T04:37:07.583Z,7.65
2019-05-03T04:39:36.440Z,7.83
2019-05-03T04:42:06.752Z,8.08
2019-05-03T04:44:36.069Z,8.90
2019-05-03T04:47:06.943Z,8.70
2019-05-03T04:49:36.342Z,8.63
2019-05-03T04:52:06.237Z,8.18
2019-05-03T04:54:36.847Z,8.85
2019-05-03T04:57:06.562Z,8.53
2019-05-03T04:59:35.967Z,8.25
2019-05-03T05:02:06.060Z,8.68
2019-05-03T05:04:35.892Z,8.35
2019-05-03T05:07:06.235Z,8.43
2019-05-03T05:09:35.371Z,8.80
2019-05-03T05:12:05.649Z,8.50
2019-05-03T05:14:35.397Z,8.93
2019-05-03T05:17:06.064Z,8.90
2019-05-03T05:19:36.939Z,8.30
2019-05-03T05:22:10.059Z,9.20
2019-05-03T05:24:38.933Z,8.50
2019-05-03T05:27:09.345Z,8.70
2019-05-03T05:29:39.780Z,8.75
2019-05-03T05:32:08.579Z,8.38
2019-05-03T05:34:37.455Z,8.90
2019-05-03T05:37:06.267Z,8.93
2019-05-03T05:39:35.674Z,7.87
2019-05-03T05:42:04.647Z,8.48
2019-05-03T05:44:35.249Z,7.00
2019-05-03T05:47:11.612Z,7.30
2019-05-03T05:49:47.829Z,6.83
2019-05-03T05:52:16.654Z,7.58
2019-05-03T05:54:47.052Z,8.58
2019-05-03T05:57:26.714Z,8.55
2019-05-03T05:59:59.946Z,9.13
2019-05-03T06:02:28.825Z,7.72
2019-05-03T06:04:57.626Z,7.40
2019-05-03T06:07:30.779Z,7.55
2019-05-03T06:10:05.264Z,7.85
2019-05-03T06:12:41.890Z,7.90
2019-05-03T06:15:15.096Z,8.03
2019-05-03T06:17:55.483Z,7.70
2019-05-03T06:20:32.152Z,7.20
2019-05-03T06:23:02.581Z,6.03
2019-05-03T06:25:35.217Z,7.03
2019-05-03T06:28:16.959Z,8.13
2019-05-03T06:30:54.490Z,6.47
2019-05-03T06:33:24.519Z,5.45
2019-05-03T06:35:54.707Z,6.87
2019-05-03T06:38:24.422Z,6.67
2019-05-03T06:40:54.424Z,6.47
2019-05-03T06:43:24.478Z,7.53
2019-05-03T06:45:54.822Z,6.65
2019-05-03T06:48:28.026Z,7.08
2019-05-03T06:50:55.772Z,7.37
2019-05-03T06:53:25.418Z,8.30
2019-05-03T06:55:55.410Z,6.33
2019-05-03T06:58:31.322Z,7.05
2019-05-03T07:00:56.455Z,6.72
2019-05-03T07:03:44.788Z,6.53
2019-05-03T07:06:18.132Z,6.95
2019-05-03T07:08:48.547Z,6.75
2019-05-03T07:11:17.390Z,6.78
2019-05-03T07:13:46.244Z,6.03
2019-05-03T07:16:15.102Z,6.50
2019-05-03T07:18:45.458Z,5.92
2019-05-03T07:21:15.227Z,6.10
2019-05-03T07:23:45.075Z,5.83
2019-05-03T07:26:15.126Z,5.78
2019-05-03T07:28:47.819Z,5.78
2019-05-03T07:31:15.082Z,5.67
2019-05-03T07:33:44.685Z,5.60
2019-05-03T07:36:15.319Z,5.62
2019-05-03T07:38:45.375Z,5.53
2019-05-03T07:41:14.970Z,5.33
2019-05-03T07:43:45.063Z,5.25
2019-05-03T07:46:14.678Z,5.78
2019-05-03T07:48:45.722Z,5.40
2019-05-03T07:51:14.550Z,6.17
2019-05-03T07:53:45.130Z,5.58
2019-05-03T07:56:15.797Z,6.10
2019-05-03T07:58:59.972Z,5.80
2019-05-03T08:01:35.374Z,6.12
2019-05-03T08:04:05.435Z,6.47
2019-05-03T08:06:34.695Z,6.60
2019-05-03T08:09:05.918Z,6.40
2019-05-03T08:11:35.261Z,6.75
2019-05-03T08:14:05.536Z,6.83
2019-05-03T08:16:35.240Z,6.78
2019-05-03T08:19:04.906Z,6.47
2019-05-03T08:21:38.198Z,5.35
2019-05-03T08:24:04.825Z,5.65
2019-05-03T08:26:35.052Z,5.87
2019-05-03T08:29:15.294Z,6.50
2019-05-03T08:31:42.141Z,5.62
2019-05-03T08:34:12.557Z,4.95
2019-05-03T08:37:01.077Z,4.87
2019-05-03T08:39:29.919Z,4.47
2019-05-03T08:42:04.656Z,4.37
2019-05-03T08:44:35.205Z,4.95
2019-05-03T08:47:05.214Z,5.20
2019-05-03T08:49:34.849Z,4.80
2019-05-03T08:52:05.472Z,5.50
2019-05-03T08:54:34.872Z,5.97
2019-05-03T08:57:06.020Z,5.85
2019-05-03T08:59:35.757Z,5.90
2019-05-03T09:02:14.014Z,6.28
2019-05-03T09:04:38.617Z,5.67
2019-05-03T09:07:06.823Z,5.85
2019-05-03T09:09:46.194Z,6.17
2019-05-03T09:12:14.979Z,5.87
2019-05-03T09:14:46.382Z,5.80
2019-05-03T09:17:15.274Z,5.95
2019-05-03T09:19:45.349Z,4.85
2019-05-03T09:22:14.857Z,5.65
2019-05-03T09:24:45.564Z,5.35
2019-05-03T09:27:15.433Z,6.25
2019-05-03T09:29:46.184Z,6.00
2019-05-03T09:32:15.079Z,6.58
2019-05-03T09:34:44.477Z,6.15
2019-05-03T09:37:15.346Z,6.20
2019-05-03T09:39:44.577Z,6.53
2019-05-03T09:42:15.387Z,6.37
2019-05-03T09:44:45.036Z,7.22
2019-05-03T09:47:14.679Z,6.72
2019-05-03T09:49:45.389Z,6.67
2019-05-03T09:52:16.071Z,6.53
2019-05-03T09:54:46.464Z,6.67
2019-05-03T09:57:15.359Z,5.72
2019-05-03T09:59:56.465Z,6.33
2019-05-03T10:02:15.190Z,6.05
2019-05-03T10:04:44.691Z,6.72
2019-05-03T10:07:15.372Z,5.80
2019-05-03T10:09:45.055Z,5.60
2019-05-03T10:12:16.142Z,4.90
2019-05-03T10:14:45.546Z,5.17
2019-05-03T10:17:16.055Z,6.08
2019-05-03T10:19:45.222Z,6.05
2019-05-03T10:22:15.370Z,5.72
2019-05-03T10:24:45.260Z,5.97
2019-05-03T10:27:15.225Z,5.78
2019-05-03T10:29:44.782Z,6.67
2019-05-03T10:32:17.731Z,7.67
2019-05-03T10:35:05.666Z,7.00
2019-05-03T10:37:35.870Z,7.22
2019-05-03T10:40:08.052Z,6.87
2019-05-03T10:42:36.209Z,7.00
2019-05-03T10:45:06.473Z,6.30
2019-05-03T10:47:35.300Z,5.80
2019-05-03T10:50:09.055Z,4.47
2019-05-03T10:52:44.206Z,4.45
2019-05-03T10:55:12.889Z,4.62
2019-05-03T10:57:44.976Z,6.20
2019-05-03T11:00:41.670Z,5.70
2019-05-03T11:02:55.079Z,5.80
2019-05-03T11:05:24.093Z,6.20
2019-05-03T11:07:52.950Z,6.12
2019-05-03T11:10:21.811Z,7.22
2019-05-03T11:12:50.637Z,7.00
2019-05-03T11:15:19.488Z,6.47
2019-05-03T11:17:48.309Z,7.05
2019-05-03T11:20:28.540Z,5.97
2019-05-03T11:22:50.563Z,5.10
2019-05-03T11:25:19.424Z,4.30
2019-05-03T11:27:49.823Z,3.00
2019-05-03T11:30:19.344Z,2.95
2019-05-03T11:32:50.107Z,4.20
2019-05-03T11:35:24.681Z,3.67
2019-05-03T11:38:11.758Z,1.60
2019-05-03T11:40:40.613Z,1.80
2019-05-03T11:43:09.434Z,1.82
2019-05-03T11:45:38.306Z,1.70
2019-05-03T11:48:07.131Z,1.75
2019-05-03T11:50:35.985Z,1.70
2019-05-03T11:53:05.256Z,2.10
2019-05-03T11:55:35.254Z,2.67
2019-05-03T11:58:06.039Z,2.15
2019-05-03T12:00:36.467Z,1.82
2019-05-03T12:03:06.844Z,1.50
2019-05-03T12:05:35.714Z,1.47
2019-05-03T12:08:05.440Z,1.00
2019-05-03T12:10:50.310Z,1.10
2019-05-03T12:13:06.491Z,0.60
2019-05-03T12:15:35.447Z,0.95
2019-05-03T12:18:06.765Z,0.80
2019-05-03T12:23:06.844Z,0.60
2019-05-03T12:25:37.129Z,0.93
2019-05-03T12:28:06.523Z,0.90
2019-05-03T12:30:35.639Z,0.60
2019-05-03T12:33:05.907Z,0.93
2019-05-03T12:35:35.706Z,1.00
2019-05-03T12:38:05.651Z,0.80
2019-05-03T12:40:35.571Z,0.75
2019-05-03T12:43:06.077Z,0.75
2019-05-03T12:45:35.573Z,0.60
2019-05-03T12:48:05.330Z,0.72
2019-05-03T12:50:34.696Z,0.80
2019-05-03T12:53:04.791Z,0.50
2019-05-03T12:55:35.572Z,0.85
2019-05-03T12:58:06.444Z,0.68
2019-05-03T13:00:44.959Z,0.50
2019-05-03T13:03:15.214Z,0.85
2019-05-03T13:05:45.004Z,0.60
2019-05-03T13:08:41.129Z,0.57
2019-05-03T13:11:10.060Z,0.70
2019-05-03T13:13:38.912Z,0.70
2019-05-03T13:16:07.723Z,0.70
2019-05-03T13:18:36.587Z,0.70
2019-05-03T13:21:06.010Z,0.70
2019-05-03T13:23:35.436Z,0.80
2019-05-03T13:26:05.669Z,0.80
2019-05-03T13:28:35.331Z,0.95
2019-05-03T13:31:05.793Z,0.60
2019-05-03T13:33:35.073Z,0.50
2019-05-03T13:36:04.887Z,0.80
2019-05-03T13:38:35.025Z,1.00
2019-05-03T13:41:06.217Z,0.80
2019-05-03T13:43:34.918Z,1.70
2019-05-03T13:46:05.197Z,3.20
2019-05-03T13:48:42.750Z,3.98
2019-05-03T13:51:05.270Z,4.17
2019-05-03T13:53:34.854Z,4.30
2019-05-03T13:56:04.807Z,4.53
2019-05-03T13:58:35.724Z,4.92
2019-05-03T14:01:05.547Z,4.25
2019-05-03T14:03:35.288Z,3.45
2019-05-03T14:06:08.694Z,3.52
2019-05-03T14:08:35.134Z,3.00
2019-05-03T14:11:05.041Z,2.65
2019-05-03T14:13:35.367Z,1.70
2019-05-03T14:16:05.968Z,1.40
2019-05-03T14:18:35.582Z,1.27
2019-05-03T14:21:06.194Z,1.15
2019-05-03T14:23:36.588Z,1.52
2019-05-03T14:26:05.437Z,1.30
2019-05-03T14:28:34.630Z,1.20
2019-05-03T14:31:05.225Z,1.27
2019-05-03T14:33:35.403Z,1.85
2019-05-03T14:36:05.326Z,1.37
2019-05-03T14:38:34.345Z,1.70
2019-05-03T14:41:05.374Z,1.00
2019-05-03T14:43:35.494Z,1.27
2019-05-03T14:46:05.610Z,1.45
2019-05-03T14:48:35.129Z,1.25
2019-05-03T14:51:07.478Z,1.50
2019-05-03T14:53:36.353Z,1.57
2019-05-03T14:56:18.742Z,1.50
2019-05-03T15:01:27.559Z,1.62
2019-05-03T15:03:56.397Z,1.80
2019-05-03T15:06:25.209Z,1.67
2019-05-03T15:08:54.733Z,1.45
2019-05-03T15:11:23.782Z,1.30
2019-05-03T15:13:52.642Z,1.60
2019-05-03T15:16:21.488Z,1.15
2019-05-03T15:18:50.318Z,1.15
2019-05-03T15:21:19.168Z,1.40
2019-05-03T15:23:47.979Z,1.55
2019-05-03T15:26:16.871Z,1.05
2019-05-03T15:28:45.683Z,1.40
2019-05-03T15:31:14.667Z,1.20
2019-05-03T15:33:44.922Z,1.25
2019-05-03T15:36:15.407Z,1.40
2019-05-03T15:38:44.638Z,1.00
2019-05-03T15:41:14.683Z,1.60
2019-05-03T15:43:45.494Z,1.20
2019-05-03T15:46:15.862Z,1.42
2019-05-03T15:48:46.269Z,1.37
2019-05-03T15:51:15.167Z,1.25
2019-05-03T15:53:44.403Z,1.10
2019-05-03T15:56:14.702Z,1.30
2019-05-03T15:58:46.441Z,1.20
2019-05-03T16:01:15.320Z,1.20
2019-05-03T16:03:44.974Z,2.00
2019-05-03T16:06:15.548Z,2.47
2019-05-03T16:08:44.676Z,1.47
2019-05-03T16:11:14.818Z,1.45
2019-05-03T16:13:45.038Z,1.60
2019-05-03T16:16:15.221Z,1.30
2019-05-03T16:18:44.817Z,1.57
2019-05-03T16:21:14.637Z,1.62
2019-05-03T16:23:46.199Z,1.75
2019-05-03T16:26:14.673Z,1.50
2019-05-03T16:28:46.454Z,1.57
2019-05-03T16:31:17.073Z,1.72
2019-05-03T16:33:45.852Z,1.90
2019-05-03T16:36:14.888Z,3.87
2019-05-03T16:38:44.929Z,2.83
2019-05-03T16:41:17.433Z,2.40
2019-05-03T16:43:45.536Z,5.47
2019-05-03T16:46:14.697Z,2.70
2019-05-03T16:48:44.827Z,1.80
2019-05-03T16:51:15.157Z,2.40
2019-05-03T16:53:44.685Z,1.90
2019-05-03T16:56:15.841Z,1.90
2019-05-03T16:58:44.662Z,2.30
2019-05-03T17:01:17.790Z,2.00
2019-05-03T17:03:48.745Z,2.20
2019-05-03T17:06:21.978Z,2.30
2019-05-03T17:09:08.794Z,2.60
2019-05-03T17:11:37.621Z,3.08
2019-05-03T17:14:06.506Z,3.30
2019-05-03T17:16:35.340Z,3.50
2019-05-03T17:19:05.885Z,3.80
2019-05-03T17:21:35.037Z,3.85
2019-05-03T17:24:04.361Z,5.08
2019-05-03T17:26:35.162Z,4.33
2019-05-03T17:29:04.644Z,4.45
2019-05-03T17:31:35.189Z,4.50
2019-05-03T17:34:05.558Z,5.08
2019-05-03T17:36:34.545Z,5.15
2019-05-03T17:39:04.927Z,5.47
2019-05-03T17:41:35.359Z,5.85
2019-05-03T17:44:05.777Z,5.80
2019-05-03T17:46:34.826Z,5.95
2019-05-03T17:49:05.260Z,6.30
2019-05-03T17:51:41.971Z,6.60
2019-05-03T17:54:27.681Z,7.33
2019-05-03T17:56:58.092Z,7.72
2019-05-03T17:59:28.507Z,7.17
2019-05-03T18:02:15.323Z,7.45
2019-05-03T18:04:52.031Z,7.58
2019-05-03T18:07:25.107Z,7.58
2019-05-03T18:09:55.527Z,7.37
2019-05-03T18:12:24.412Z,7.12
2019-05-03T18:14:55.320Z,7.10
2019-05-03T18:17:24.771Z,7.08
2019-05-03T18:19:55.323Z,6.92
2019-05-03T18:22:24.404Z,7.90
2019-05-03T18:24:54.602Z,7.25
2019-05-03T18:27:25.057Z,7.45
2019-05-03T18:29:55.417Z,7.70
2019-05-03T18:32:25.188Z,7.28
2019-05-03T18:34:54.631Z,7.22
2019-05-03T18:37:24.518Z,7.03
2019-05-03T18:39:54.687Z,7.05
2019-05-03T18:42:30.645Z,7.17
2019-05-03T18:45:09.905Z,6.28
2019-05-03T18:47:38.725Z,7.25
2019-05-03T18:50:08.481Z,7.17
2019-05-03T18:52:37.287Z,6.30
2019-05-03T18:55:07.332Z,4.62
2019-05-03T18:57:36.389Z,4.95
2019-05-03T19:00:08.770Z,4.78
2019-05-03T19:02:37.627Z,4.83
2019-05-03T19:05:07.864Z,4.80
2019-05-03T19:07:41.012Z,4.92
2019-05-03T19:10:11.783Z,4.00
2019-05-03T19:12:42.208Z,3.85
2019-05-03T19:15:11.925Z,3.80
2019-05-03T19:17:42.354Z,3.77
2019-05-03T19:20:12.720Z,3.75
2019-05-03T19:22:41.581Z,4.10
2019-05-03T19:25:10.416Z,5.20
2019-05-03T19:27:39.269Z,3.58
2019-05-03T19:30:08.384Z,3.60
2019-05-03T19:32:37.254Z,3.80
2019-05-03T19:35:08.755Z,3.83
2019-05-03T19:37:37.619Z,4.12
2019-05-03T19:40:07.731Z,3.75
2019-05-03T19:42:36.583Z,4.17
2019-05-03T19:45:06.356Z,4.22
2019-05-03T19:47:35.400Z,4.37
2019-05-03T19:50:06.434Z,4.30
2019-05-03T19:52:39.259Z,3.92
2019-05-03T19:55:08.135Z,4.35
2019-05-03T19:57:41.299Z,4.80
2019-05-03T20:00:10.755Z,5.30
2019-05-03T20:02:41.135Z,5.45
2019-05-03T20:05:28.419Z,6.03
2019-05-03T20:08:16.920Z,6.62
2019-05-03T20:10:46.274Z,6.83
2019-05-03T20:13:15.234Z,7.15
2019-05-03T20:15:45.042Z,8.08
2019-05-03T20:18:15.246Z,8.00
2019-05-03T20:20:44.754Z,8.43
2019-05-03T20:23:14.654Z,8.43
2019-05-03T20:25:43.775Z,9.00
2019-05-03T20:28:12.645Z,9.83
2019-05-03T20:30:41.658Z,9.48
2019-05-03T20:33:10.536Z,10.63
2019-05-03T20:35:39.347Z,10.63
2019-05-03T20:38:08.198Z,11.33
2019-05-03T20:40:37.017Z,12.37
2019-05-03T20:43:07.476Z,12.15
2019-05-03T20:45:37.897Z,12.05
2019-05-03T20:48:08.287Z,12.40
2019-05-03T20:50:37.152Z,12.82
2019-05-03T20:53:05.996Z,12.50
2019-05-03T20:55:34.889Z,12.68
2019-05-03T20:58:05.183Z,13.55
2019-05-03T21:00:34.557Z,12.75
2019-05-03T21:03:04.943Z,12.58
2019-05-03T21:05:35.372Z,12.18
2019-05-03T21:08:05.579Z,12.47
2019-05-03T21:10:34.838Z,12.47
2019-05-03T21:13:05.445Z,11.57
2019-05-03T21:15:52.126Z,12.03
2019-05-03T21:18:37.791Z,12.65
2019-05-03T21:21:17.066Z,12.07
2019-05-03T21:24:02.440Z,11.25
2019-05-03T21:26:31.317Z,11.80
2019-05-03T21:29:00.146Z,10.95
2019-05-03T21:31:28.985Z,12.98
2019-05-03T21:33:57.854Z,11.93
2019-05-03T21:36:26.668Z,13.50
2019-05-03T21:38:55.534Z,14.50
2019-05-03T21:41:24.724Z,14.05
2019-05-03T21:43:54.541Z,14.15
2019-05-03T21:46:40.589Z,13.20
2019-05-03T21:49:10.980Z,14.25
2019-05-03T21:51:39.814Z,13.05
2019-05-03T21:54:08.663Z,13.62
2019-05-03T21:56:37.479Z,14.03
2019-05-03T21:59:06.346Z,14.25
2019-05-03T22:01:37.484Z,14.03
2019-05-03T22:04:06.640Z,14.95
2019-05-03T22:06:35.463Z,14.30
2019-05-03T22:09:05.721Z,14.95
2019-05-03T22:11:34.583Z,14.25
2019-05-03T22:14:05.003Z,13.70
2019-05-03T22:16:35.411Z,13.65
2019-05-03T22:19:05.061Z,13.88
2019-05-03T22:21:36.974Z,14.58
2019-05-03T22:24:07.629Z,13.55
2019-05-03T22:26:53.121Z,14.68
2019-05-03T22:29:21.989Z,15.03
2019-05-03T22:31:50.809Z,14.70
2019-05-03T22:34:19.616Z,14.53
2019-05-03T22:36:48.482Z,15.25
2019-05-03T22:39:17.316Z,15.40
2019-05-03T22:41:46.160Z,16.52
2019-05-03T22:44:17.058Z,15.78
2019-05-03T22:46:45.518Z,15.85
2019-05-03T22:49:15.604Z,16.50
2019-05-03T22:51:45.192Z,17.80
2019-05-03T22:54:15.347Z,18.65
2019-05-03T22:56:44.899Z,18.37
2019-05-03T22:59:14.890Z,19.25
2019-05-03T23:01:45.787Z,19.92
2019-05-03T23:04:14.832Z,19.75
2019-05-03T23:06:46.816Z,19.45
2019-05-03T23:09:15.872Z,20.17
2019-05-03T23:11:45.086Z,20.08
2019-05-03T23:14:15.062Z,21.30
2019-05-03T23:16:44.774Z,19.73
2019-05-03T23:19:15.017Z,19.85
2019-05-03T23:21:48.401Z,21.07
2019-05-03T23:24:17.211Z,20.52
2019-05-03T23:26:46.059Z,20.37
2019-05-03T23:29:14.889Z,20.35
2019-05-03T23:31:44.848Z,20.17
2019-05-03T23:34:13.992Z,21.73
2019-05-03T23:36:42.836Z,21.15
2019-05-03T23:39:11.647Z,21.15
2019-05-03T23:41:40.544Z,22.52
2019-05-03T23:44:09.409Z,21.30
2019-05-03T23:46:39.801Z,21.95
2019-05-03T23:49:08.688Z,22.40
2019-05-03T23:51:48.082Z,22.67
2019-05-03T23:54:16.973Z,20.88
2019-05-03T23:56:45.969Z,21.48
2019-05-03T23:59:15.103Z,20.20
